Time;durP1;ratioP1;P1;durP2;ratioP2;P2;SDS_P1;SDS_P2;PMS_P1;PMS_P2;Temp;Humidity;BMP_temperature;BMP_pressure;BME280_temperature;BME280_humidity;BME280_pressure;Samples;Min_cycle;Max_cycle;Signal;HPM_P1;HPM_P2
2022/05/29 00:00:23;;;;;;;5.07;2.65;;;;;;;17.43;99.97;100068.88;5062898;28;20056;-75
2022/05/29 00:02:49;;;;;;;6.25;3.03;;;;;;;17.54;100.00;100118.09;5062035;28;20025;-76
2022/05/29 00:05:15;;;;;;;5.50;2.72;;;;;;;17.45;99.91;100090.06;5061437;28;20059;-75
2022/05/29 00:07:48;;;;;;;7.63;2.50;;;;;;;17.55;100.00;100101.22;5059501;28;20508;-75
2022/05/29 00:10:14;;;;;;;8.48;3.22;;;;;;;17.61;99.97;100091.28;5060336;28;20061;-74
2022/05/29 00:12:40;;;;;;;5.63;2.50;;;;;;;17.60;99.83;100078.06;5058942;28;20114;-73
2022/05/29 00:15:06;;;;;;;7.68;3.97;;;;;;;17.02;99.67;100009.28;5063737;28;20045;-76
2022/05/29 00:17:31;;;;;;;5.00;3.47;;;;;;;16.94;100.00;100013.97;5064375;28;20040;-76
2022/05/29 00:19:57;;;;;;;9.23;4.40;;;;;;;17.24;99.67;99994.38;5060526;28;20063;-73
2022/05/29 00:22:24;;;;;;;5.05;2.65;;;;;;;17.91;99.32;100078.78;5065384;28;20044;-73
2022/05/29 00:24:51;;;;;;;7.97;3.08;;;;;;;17.84;99.82;100052.47;5066921;28;20040;-73
2022/05/29 00:27:23;;;;;;;8.07;4.68;;;;;;;17.76;100.00;100054.50;5063240;28;20044;-73
2022/05/29 00:29:49;;;;;;;4.85;3.40;;;;;;;17.88;100.00;100073.53;5061581;28;20333;-74
2022/05/29 00:32:15;;;;;;;5.95;3.92;;;;;;;17.44;100.00;100030.84;5063856;28;20032;-74
2022/05/29 00:34:41;;;;;;;7.60;4.07;;;;;;;17.29;99.30;100018.09;5060255;28;20072;-74
2022/05/29 00:37:08;;;;;;;7.68;3.90;;;;;;;17.65;99.12;100116.81;5059967;28;20063;-73
2022/05/29 00:39:34;;;;;;;6.05;4.30;;;;;;;17.69;98.97;100114.91;5063883;28;20048;-74
2022/05/29 00:42:05;;;;;;;6.97;3.88;;;;;;;17.82;99.44;100129.53;5063663;28;20048;-74
2022/05/29 00:44:32;;;;;;;6.13;4.18;;;;;;;17.63;99.10;100115.97;5067943;28;20131;-74
2022/05/29 00:47:06;;;;;;;5.45;3.97;;;;;;;17.40;99.12;100090.22;5061484;28;20076;-73
2022/05/29 00:49:35;;;;;;;5.68;4.78;;;;;;;17.19;98.94;100070.56;5063851;28;20052;-73
2022/05/29 00:52:05;;;;;;;8.30;3.75;;;;;;;17.67;98.78;100141.47;5065710;28;20067;-74
2022/05/29 00:54:42;;;;;;;5.05;3.45;;;;;;;17.37;98.69;100114.22;5064918;28;20052;-74
2022/05/29 00:57:11;;;;;;;6.03;3.60;;;;;;;17.45;99.96;100137.81;5064232;28;20052;-74
2022/05/29 00:59:38;;;;;;;10.10;4.43;;;;;;;17.11;100.00;100056.69;5067376;28;20032;-74
2022/05/29 01:02:04;;;;;;;7.28;4.80;;;;;;;17.19;100.00;100134.22;5065319;28;20060;-74
2022/05/29 01:04:36;;;;;;;11.65;5.82;;;;;;;17.06;100.00;100064.78;5061459;28;20048;-74
2022/05/29 01:07:08;;;;;;;7.38;5.80;;;;;;;17.17;100.00;100098.94;5065867;28;20040;-74
2022/05/29 01:09:41;;;;;;;6.67;5.27;;;;;;;16.88;100.00;100094.56;5065449;28;20048;-74
2022/05/29 01:12:40;;;;;;;7.00;5.85;;;;;;;17.06;100.00;100109.00;5066661;28;20047;-74
2022/05/29 01:15:33;;;;;;;7.05;5.68;;;;;;;16.45;100.00;100054.28;5064637;28;20044;-74
2022/05/29 01:18:13;;;;;;;8.37;7.10;;;;;;;16.45;100.00;100094.00;5060875;28;20542;-73
2022/05/29 01:20:58;;;;;;;7.93;5.45;;;;;;;16.86;100.00;100149.38;5062688;28;20143;-72
2022/05/29 01:24:01;;;;;;;9.23;5.55;;;;;;;17.03;100.00;100131.19;5064583;28;20043;-74
2022/05/29 01:27:02;;;;;;;5.78;4.75;;;;;;;16.52;100.00;100115.91;5063257;28;20060;-74
2022/05/29 01:29:39;;;;;;;6.07;4.70;;;;;;;16.55;100.00;100094.63;5041336;28;20136;-74
2022/05/29 01:32:12;;;;;;;12.65;4.82;;;;;;;17.23;100.00;100174.75;5059466;28;20048;-74
2022/05/29 01:34:53;;;;;;;9.63;4.93;;;;;;;17.01;100.00;100177.19;5056934;28;20047;-74
2022/05/29 01:37:48;;;;;;;5.47;4.00;;;;;;;17.01;100.00;100179.84;5059234;28;20441;-74
2022/05/29 01:40:29;;;;;;;7.32;3.95;;;;;;;16.75;99.80;100107.28;5059251;28;20053;-74
2022/05/29 01:43:34;;;;;;;11.20;4.85;;;;;;;16.76;99.42;100098.38;5061938;28;20036;-74
2022/05/29 01:46:10;;;;;;;6.55;4.65;;;;;;;17.35;98.59;100186.75;5039645;28;20052;-74
2022/05/29 01:48:47;;;;;;;6.45;3.80;;;;;;;16.94;98.04;100122.66;5062669;28;20051;-74
2022/05/29 01:51:22;;;;;;;9.38;3.60;;;;;;;17.36;98.47;100184.06;5063835;28;20123;-74
2022/05/29 01:53:54;;;;;;;6.40;4.00;;;;;;;16.88;98.00;100118.41;5057339;28;20024;-74
2022/05/29 01:56:33;;;;;;;3.60;2.90;;;;;;;17.25;97.78;100187.03;5060020;28;20032;-73
2022/05/29 01:59:05;;;;;;;5.78;3.65;;;;;;;17.19;98.96;100197.84;5062405;28;20510;-72
2022/05/29 02:01:46;;;;;;;5.10;3.08;;;;;;;17.16;98.54;100184.69;5061192;28;20096;-74
2022/05/29 02:04:15;;;;;;;6.22;3.80;;;;;;;16.90;99.97;100195.19;5047744;28;20098;-73
2022/05/29 02:09:36;;;;;;;4.80;4.00;;;;;;;17.20;100.00;100178.38;5062209;28;20051;-73
2022/05/29 02:12:06;;;;;;;6.93;3.78;;;;;;;17.38;99.64;100189.34;5060507;28;20056;-73
2022/05/29 02:14:39;;;;;;;6.45;3.33;;;;;;;17.48;99.24;100185.44;5058968;28;20492;-73
2022/05/29 02:17:14;;;;;;;6.32;4.20;;;;;;;17.66;99.45;100197.28;5058939;28;20099;-73
2022/05/29 02:19:47;;;;;;;4.78;3.72;;;;;;;17.73;99.10;100204.09;5059312;28;20145;-73
2022/05/29 02:22:21;;;;;;;9.73;4.63;;;;;;;17.33;99.16;100138.22;5059645;28;20028;-73
2022/05/29 02:24:50;;;;;;;7.55;4.65;;;;;;;17.61;99.29;100209.81;5061735;28;20154;-73
2022/05/29 02:27:30;;;;;;;9.50;4.57;;;;;;;17.66;99.19;100205.22;5061195;28;20060;-73
2022/05/29 02:29:58;;;;;;;9.07;4.80;;;;;;;17.58;99.94;100201.94;5059564;28;20075;-73
2022/05/29 02:32:53;;;;;;;6.32;3.97;;;;;;;17.54;99.04;100203.84;5061435;28;20116;-73
2022/05/29 02:35:56;;;;;;;6.45;4.32;;;;;;;17.56;98.69;100186.09;5058774;28;20048;-73
2022/05/29 02:38:36;;;;;;;6.97;4.35;;;;;;;17.72;98.98;100187.31;5066069;28;20055;-74
2022/05/29 02:41:21;;;;;;;8.32;4.35;;;;;;;17.34;98.67;100113.41;5056154;28;22652;-73
2022/05/29 02:44:12;;;;;;;9.10;4.65;;;;;;;17.15;98.12;100097.25;5060324;28;20060;-74
2022/05/29 02:46:53;;;;;;;12.98;4.55;;;;;;;17.69;98.49;100187.41;5061247;28;20146;-73
2022/05/29 02:49:31;;;;;;;6.40;3.90;;;;;;;17.15;98.65;100134.38;5055907;28;20074;-73
2022/05/29 02:52:01;;;;;;;9.00;4.63;;;;;;;17.37;98.63;100174.31;5060438;28;20048;-73
2022/05/29 02:54:30;;;;;;;7.65;4.68;;;;;;;17.64;98.76;100209.72;5059165;28;20110;-74
2022/05/29 02:56:58;;;;;;;5.63;3.92;;;;;;;17.36;97.76;100168.16;5062663;28;20035;-73
2022/05/29 02:59:29;;;;;;;5.68;4.20;;;;;;;17.34;98.01;100169.13;5059508;28;20071;-74
2022/05/29 03:02:18;;;;;;;5.20;3.50;;;;;;;16.42;96.98;100012.00;5056315;28;20052;-74
2022/05/29 03:04:49;;;;;;;6.82;3.85;;;;;;;17.50;98.12;100220.75;5058810;28;20052;-74
2022/05/29 03:07:18;;;;;;;7.45;4.40;;;;;;;17.18;97.93;100172.25;5057073;28;20041;-73
2022/05/29 03:10:07;;;;;;;6.20;3.58;;;;;;;17.12;96.71;100153.88;5057931;28;20048;-74
2022/05/29 03:12:49;;;;;;;6.10;3.40;;;;;;;17.38;97.42;100219.38;5061611;28;20830;-74
2022/05/29 03:15:14;;;;;;;6.03;3.15;;;;;;;16.51;98.24;100150.41;5061397;28;20079;-73
2022/05/29 03:18:10;;;;;;;7.88;3.95;;;;;;;16.28;99.17;100137.78;5060277;28;20124;-74
2022/05/29 03:21:10;;;;;;;6.18;3.40;;;;;;;16.23;100.00;100153.81;5061903;28;20101;-74
2022/05/29 03:23:48;;;;;;;5.05;3.45;;;;;;;15.94;100.00;100110.44;5058263;28;20062;-73
2022/05/29 03:26:35;;;;;;;5.32;3.28;;;;;;;16.27;100.00;100192.50;5059464;28;20132;-73
2022/05/29 03:29:08;;;;;;;4.85;3.05;;;;;;;16.57;100.00;100195.22;5062079;28;20049;-73
2022/05/29 03:31:42;;;;;;;7.80;3.13;;;;;;;16.75;100.00;100186.75;5060671;28;20028;-73
2022/05/29 03:34:09;;;;;;;5.43;3.30;;;;;;;16.93;98.82;100200.41;5055801;28;20350;-73
2022/05/29 03:36:35;;;;;;;6.47;3.50;;;;;;;16.78;98.49;100185.81;5061786;28;20040;-73
2022/05/29 03:39:01;;;;;;;4.95;3.03;;;;;;;16.94;98.09;100203.03;5063552;28;20036;-73
2022/05/29 03:41:33;;;;;;;5.57;3.55;;;;;;;16.65;98.23;100117.28;5062391;28;20047;-74
2022/05/29 03:43:59;;;;;;;4.57;2.97;;;;;;;17.06;97.40;100202.66;5063489;28;20044;-74
2022/05/29 03:46:25;;;;;;;8.65;3.17;;;;;;;17.02;96.14;100198.38;5057337;28;20048;-74
2022/05/29 03:48:51;;;;;;;5.00;3.30;;;;;;;17.14;95.37;100196.25;5063582;28;20128;-74
2022/05/29 03:51:16;;;;;;;8.93;3.58;;;;;;;16.58;95.49;100122.81;5063582;28;20062;-73
2022/05/29 03:53:43;;;;;;;8.02;3.90;;;;;;;16.67;95.75;100106.66;5056405;28;20066;-73
2022/05/29 03:56:09;;;;;;;7.40;3.42;;;;;;;17.04;95.47;100190.34;5069618;28;20109;-73
2022/05/29 03:58:35;;;;;;;7.25;3.50;;;;;;;17.08;94.27;100186.69;5062476;28;20037;-73
2022/05/29 04:01:01;;;;;;;6.75;3.85;;;;;;;16.76;95.18;100121.38;5063756;28;20040;-73
2022/05/29 04:03:26;;;;;;;7.93;2.78;;;;;;;16.76;93.30;100130.19;5058667;28;20077;-73
2022/05/29 04:05:53;;;;;;;8.75;3.85;;;;;;;17.20;93.66;100210.19;5060544;28;20040;-73
2022/05/29 04:13:50;;;;;;;4.75;2.42;;;;;;;16.90;93.01;100211.97;5062961;28;20043;-73
2022/05/29 04:16:16;;;;;;;4.38;2.25;;;;;;;16.67;92.98;100233.81;5058477;28;20146;-73
2022/05/29 04:18:42;;;;;;;5.63;2.00;;;;;;;16.74;92.91;100243.34;5064364;28;20567;-73
2022/05/29 04:21:08;;;;;;;6.25;2.97;;;;;;;17.01;94.42;100239.03;5064651;28;20044;-72
2022/05/29 04:23:34;;;;;;;5.28;2.78;;;;;;;16.91;93.58;100229.63;5063413;28;20654;-73
2022/05/29 04:25:59;;;;;;;4.82;2.92;;;;;;;16.19;92.94;100157.44;5063486;28;20044;-73
2022/05/29 04:28:25;;;;;;;5.13;2.78;;;;;;;16.85;93.65;100240.41;5063413;28;20083;-74
2022/05/29 04:30:51;;;;;;;8.68;2.80;;;;;;;16.22;93.15;100146.75;5061610;28;20049;-74
2022/05/29 04:33:17;;;;;;;4.97;2.63;;;;;;;16.57;92.58;100235.81;5059887;28;20444;-73
2022/05/29 04:35:48;;;;;;;7.35;2.65;;;;;;;16.97;93.18;100269.19;5061548;28;20037;-72
2022/05/29 04:38:14;;;;;;;5.80;2.13;;;;;;;16.80;91.75;100244.97;5061642;28;20040;-73
2022/05/29 04:40:43;;;;;;;5.30;2.92;;;;;;;16.92;90.78;100263.16;5063773;28;20114;-74
2022/05/29 04:43:10;;;;;;;6.72;3.00;;;;;;;16.81;92.22;100236.09;5062995;28;20122;-73
2022/05/29 04:45:40;;;;;;;4.50;2.05;;;;;;;16.66;90.99;100190.53;5061904;28;20040;-73
2022/05/29 04:48:06;;;;;;;3.53;2.38;;;;;;;17.03;90.65;100255.78;5064929;28;20072;-74
2022/05/29 04:50:31;;;;;;;4.28;2.03;;;;;;;16.49;90.08;100194.59;5064822;28;20043;-73
2022/05/29 04:52:57;;;;;;;3.25;1.88;;;;;;;16.43;90.03;100200.91;5059839;28;20049;-72
2022/05/29 04:55:22;;;;;;;6.78;2.38;;;;;;;17.02;90.67;100264.66;5061352;28;20498;-73
2022/05/29 04:57:48;;;;;;;3.95;2.17;;;;;;;16.45;91.15;100186.72;5059538;28;20044;-73
2022/05/29 05:00:14;;;;;;;4.70;2.13;;;;;;;16.85;90.14;100264.25;5063565;28;20339;-73
2022/05/29 05:02:40;;;;;;;4.15;2.25;;;;;;;16.98;89.30;100252.38;5060055;28;20043;-73
2022/05/29 05:05:06;;;;;;;3.75;2.03;;;;;;;16.73;89.58;100248.66;5059362;28;20060;-73
2022/05/29 05:07:32;;;;;;;5.40;2.97;;;;;;;16.37;89.93;100201.97;5056656;28;20136;-73
2022/05/29 05:09:58;;;;;;;5.47;2.42;;;;;;;16.81;88.70;100262.59;5059661;28;20048;-73
2022/05/29 05:12:24;;;;;;;6.75;2.15;;;;;;;16.73;88.73;100259.25;5062761;28;20041;-73
2022/05/29 05:14:49;;;;;;;5.78;2.63;;;;;;;16.23;87.58;100214.69;5059203;28;20158;-74
2022/05/29 05:17:15;;;;;;;4.40;2.00;;;;;;;16.73;87.86;100260.13;5063238;28;20090;-74
2022/05/29 05:19:42;;;;;;;4.70;2.45;;;;;;;16.88;89.11;100267.69;5058564;28;20055;-74
2022/05/29 05:22:08;;;;;;;2.78;1.80;;;;;;;16.77;88.92;100261.78;5062158;28;20040;-73
2022/05/29 05:24:37;;;;;;;5.18;2.53;;;;;;;16.75;88.58;100246.84;5057326;28;20391;-73
2022/05/29 05:27:04;;;;;;;4.05;1.92;;;;;;;16.17;87.10;100252.78;5067005;28;20045;-73
2022/05/29 05:29:29;;;;;;;4.50;2.25;;;;;;;16.51;87.80;100246.63;5062661;28;20048;-73
2022/05/29 05:31:56;;;;;;;6.35;2.05;;;;;;;16.00;88.15;100188.84;5063108;28;20039;-73
2022/05/29 05:34:22;;;;;;;5.38;2.38;;;;;;;16.09;87.09;100225.66;5061595;28;20056;-72
2022/05/29 05:36:48;;;;;;;8.35;2.00;;;;;;;16.03;87.91;100194.91;5058751;28;20048;-73
2022/05/29 05:39:13;;;;;;;6.05;2.22;;;;;;;16.48;88.76;100267.84;5059982;28;20056;-74
2022/05/29 05:41:39;;;;;;;5.88;1.98;;;;;;;16.14;87.26;100222.88;5039902;28;20071;-73
2022/05/29 05:44:05;;;;;;;7.20;2.20;;;;;;;16.03;86.78;100218.72;5063856;28;20040;-73
2022/05/29 05:46:30;;;;;;;3.67;1.55;;;;;;;16.77;87.97;100282.97;5061466;28;20186;-73
2022/05/29 05:48:58;;;;;;;3.38;1.67;;;;;;;16.37;86.26;100215.19;5063215;28;20044;-73
2022/05/29 05:51:24;;;;;;;3.22;1.90;;;;;;;16.02;87.13;100202.91;5061112;28;20040;-73
2022/05/29 05:53:50;;;;;;;2.55;1.40;;;;;;;16.42;86.70;100286.59;5043304;28;20041;-73
2022/05/29 05:56:17;;;;;;;3.95;2.10;;;;;;;16.69;86.98;100290.25;5065241;28;20085;-74
2022/05/29 05:58:44;;;;;;;5.72;2.45;;;;;;;16.78;87.91;100300.59;5064387;28;20066;-73
2022/05/29 06:01:13;;;;;;;3.63;2.15;;;;;;;16.73;87.76;100309.59;5056011;28;20048;-73
2022/05/29 06:03:39;;;;;;;3.88;1.73;;;;;;;16.49;85.35;100312.00;5057358;28;20040;-72
2022/05/29 06:06:05;;;;;;;3.58;2.15;;;;;;;16.51;86.95;100299.59;5061196;28;20175;-71
2022/05/29 06:08:31;;;;;;;6.20;2.75;;;;;;;16.81;86.41;100289.97;5061934;28;20113;-73
2022/05/29 06:10:57;;;;;;;6.90;3.13;;;;;;;16.86;85.84;100276.59;5057809;28;20131;-74
2022/05/29 06:13:22;;;;;;;4.78;2.40;;;;;;;16.42;86.10;100202.69;5060661;28;20066;-74
2022/05/29 06:15:48;;;;;;;4.22;2.45;;;;;;;16.76;85.07;100283.88;5061484;28;20574;-74
2022/05/29 06:18:15;;;;;;;5.05;2.70;;;;;;;16.86;86.35;100303.09;5063938;28;20052;-73
2022/05/29 06:20:41;;;;;;;5.80;2.92;;;;;;;16.99;87.00;100287.72;5061838;28;20119;-73
2022/05/29 06:23:08;;;;;;;5.38;2.85;;;;;;;17.17;86.62;100283.66;5061565;28;20798;-73
2022/05/29 06:25:34;;;;;;;4.00;2.22;;;;;;;16.80;85.58;100221.97;5063645;28;20041;-73
2022/05/29 06:28:01;;;;;;;4.75;2.63;;;;;;;16.72;85.79;100210.72;5060706;28;20040;-73
2022/05/29 06:30:28;;;;;;;4.10;2.28;;;;;;;16.49;85.17;100248.44;5060721;28;20063;-73
2022/05/29 06:32:54;;;;;;;5.13;2.90;;;;;;;16.57;84.50;100262.31;5061431;28;20548;-73
2022/05/29 06:35:20;;;;;;;7.97;3.22;;;;;;;17.05;84.68;100314.91;5064478;28;20218;-72
2022/05/29 06:37:47;;;;;;;5.10;2.83;;;;;;;16.57;85.64;100224.38;5053899;28;20115;-72
2022/05/29 06:40:14;;;;;;;5.15;2.70;;;;;;;16.52;86.22;100224.50;5060735;28;20048;-73
2022/05/29 06:42:41;;;;;;;5.40;2.80;;;;;;;16.75;86.58;100192.06;5057473;28;20070;-73
2022/05/29 06:45:10;;;;;;;3.72;2.05;;;;;;;16.77;85.06;100195.53;5057363;28;20062;-73
2022/05/29 06:47:36;;;;;;;5.90;2.22;;;;;;;16.50;84.87;100175.13;5061242;28;20032;-73
2022/05/29 06:50:02;;;;;;;4.78;2.47;;;;;;;16.74;83.45;100171.78;5056747;28;20060;-72
2022/05/29 06:52:31;;;;;;;7.97;2.55;;;;;;;17.55;84.04;100233.88;5057826;28;20571;-73
2022/05/29 06:54:57;;;;;;;4.97;2.65;;;;;;;17.51;82.78;100220.72;5063745;28;20075;-73
2022/05/29 06:57:44;;;;;;;5.05;2.58;;;;;;;17.74;82.60;100232.38;5060965;28;20049;-73
2022/05/29 07:08:31;;;;;;;5.65;2.72;;;;;;;17.39;79.84;100270.63;5063728;28;20115;-73
2022/05/29 07:11:00;;;;;;;4.30;2.75;;;;;;;17.08;81.62;100266.25;5063285;28;20060;-74
2022/05/29 07:13:28;;;;;;;6.50;2.78;;;;;;;17.18;81.11;100264.19;5060750;28;20571;-73
2022/05/29 07:15:55;;;;;;;3.92;2.28;;;;;;;16.60;81.75;100222.53;5060913;28;20064;-74
2022/05/29 07:18:20;;;;;;;5.85;2.90;;;;;;;16.86;82.06;100276.59;5059795;28;20668;-73
2022/05/29 07:20:46;;;;;;;8.07;2.33;;;;;;;16.50;80.91;100205.13;5059616;28;20029;-74
2022/05/29 07:23:14;;;;;;;3.20;2.15;;;;;;;17.15;80.75;100285.50;5064019;28;20036;-73
2022/05/29 07:25:40;;;;;;;7.72;2.70;;;;;;;17.51;80.48;100287.06;5061868;28;20048;-73
2022/05/29 07:28:05;;;;;;;6.40;2.42;;;;;;;17.16;79.72;100290.75;5063554;28;20063;-73
2022/05/29 07:30:32;;;;;;;5.97;2.63;;;;;;;16.62;79.47;100219.81;5061568;28;24894;-73
2022/05/29 07:33:00;;;;;;;6.00;2.65;;;;;;;16.88;78.34;100230.59;5054390;28;20080;-73
2022/05/29 07:35:26;;;;;;;4.55;2.63;;;;;;;17.17;78.08;100257.16;5059597;28;20036;-74
2022/05/29 07:37:51;;;;;;;3.53;2.10;;;;;;;16.80;76.85;100235.22;5058909;28;20075;-74
2022/05/29 07:40:17;;;;;;;11.55;2.67;;;;;;;16.98;77.46;100244.44;5056425;28;20733;-74
2022/05/29 07:45:29;;;;;;;4.38;2.50;;;;;;;17.11;76.18;100230.81;5057857;28;20820;-74
2022/05/29 07:47:55;;;;;;;5.43;3.47;;;;;;;17.16;76.63;100282.81;5056596;28;20173;-74
2022/05/29 07:50:21;;;;;;;7.13;2.45;;;;;;;17.26;76.03;100304.63;5060650;28;20065;-74
2022/05/29 07:52:49;;;;;;;4.00;1.92;;;;;;;17.53;75.50;100300.25;5059521;28;20583;-74
2022/05/29 07:55:15;;;;;;;4.63;2.55;;;;;;;17.28;74.93;100257.72;5052622;28;20055;-74
2022/05/29 07:57:41;;;;;;;5.28;2.88;;;;;;;17.28;74.08;100257.72;5051251;28;20064;-74
2022/05/29 08:00:10;;;;;;;17.00;2.95;;;;;;;17.56;73.21;100280.72;5058082;28;20085;-74
2022/05/29 08:02:37;;;;;;;7.65;3.17;;;;;;;18.05;73.43;100298.66;5053146;28;20504;-73
2022/05/29 08:05:06;;;;;;;13.25;3.35;;;;;;;18.16;72.57;100300.94;5056538;28;20831;-74
2022/05/29 08:07:31;;;;;;;10.93;2.35;;;;;;;17.33;72.65;100208.03;5057578;28;20488;-75
2022/05/29 08:09:58;;;;;;;4.53;2.22;;;;;;;17.76;73.17;100275.66;5057154;28;20048;-75
2022/05/29 08:12:24;;;;;;;10.82;2.38;;;;;;;17.73;72.51;100220.03;5061746;28;20055;-74
2022/05/29 08:14:51;;;;;;;5.38;2.40;;;;;;;18.57;72.76;100197.69;5059417;28;20063;-74
2022/05/29 08:17:17;;;;;;;4.00;2.05;;;;;;;19.04;70.33;100266.03;5059377;28;20117;-74
2022/05/29 08:19:43;;;;;;;6.53;2.78;;;;;;;19.26;70.37;100256.28;5059435;28;20048;-74
2022/05/29 08:22:08;;;;;;;4.85;2.45;;;;;;;19.03;69.97;100270.47;5054180;28;20075;-74
2022/05/29 08:30:38;;;;;;;12.20;2.75;;;;;;;20.33;69.75;100269.75;5055613;28;20121;-78
2022/05/29 08:33:05;;;;;;;8.00;2.78;;;;;;;20.57;67.06;100283.84;5056350;28;20170;-79
2022/05/29 08:35:34;;;;;;;6.03;2.80;;;;;;;20.56;67.85;100262.59;5060602;28;20037;-79
2022/05/29 08:38:02;;;;;;;5.38;2.97;;;;;;;19.70;67.38;100250.19;5060633;28;20102;-78
2022/05/29 08:40:30;;;;;;;4.03;2.53;;;;;;;18.90;69.73;100266.53;5056585;28;20037;-80
2022/05/29 08:42:55;;;;;;;9.98;3.10;;;;;;;19.13;71.85;100196.53;5055890;28;20641;-78
2022/05/29 08:45:21;;;;;;;6.35;3.38;;;;;;;18.68;71.02;100238.06;5055175;28;20104;-78
2022/05/29 08:47:49;;;;;;;6.20;2.95;;;;;;;19.04;70.13;100268.69;5057699;28;20116;-79
2022/05/29 08:50:50;;;;;;;4.47;2.00;;;;;;;17.68;72.20;100188.34;5057450;28;20032;-77
2022/05/29 08:53:39;;;;;;;9.05;3.22;;;;;;;17.59;74.01;100227.56;5055977;28;20079;-80
2022/05/29 08:57:04;;;;;;;4.53;2.55;;;;;;;17.28;74.40;100196.72;5046705;28;20098;-79
2022/05/29 09:00:00;;;;;;;12.77;2.47;;;;;;;17.95;74.51;100228.19;5038730;28;20094;-80
2022/05/29 09:02:25;;;;;;;4.63;2.95;;;;;;;17.82;75.66;100227.72;5046323;28;20056;-81
2022/05/29 09:05:08;;;;;;;3.63;2.38;;;;;;;17.64;74.71;100252.16;5055358;28;20067;-79
2022/05/29 09:07:36;;;;;;;7.07;3.30;;;;;;;17.66;75.20;100229.97;5060363;28;20078;-79
2022/05/29 09:10:44;;;;;;;8.90;3.55;;;;;;;18.01;74.03;100237.75;5042576;28;20087;-79
2022/05/29 09:13:23;;;;;;;4.07;2.05;;;;;;;18.24;74.09;100237.81;4990053;28;20048;-78
2022/05/29 09:15:57;;;;;;;4.72;2.55;;;;;;;18.32;73.52;100241.06;4986398;28;20569;-80
2022/05/29 09:18:36;;;;;;;7.53;3.60;;;;;;;18.39;73.06;100233.75;5027232;28;20045;-83
2022/05/29 09:21:11;;;;;;;3.65;2.67;;;;;;;18.37;73.16;100270.13;5058063;28;20139;-81
2022/05/29 09:24:01;;;;;;;7.55;2.42;;;;;;;18.02;73.38;100255.41;5043086;28;20052;-81
2022/05/29 09:26:33;;;;;;;6.25;2.65;;;;;;;18.07;74.45;100261.41;5063477;28;20051;-80
2022/05/29 09:28:58;;;;;;;4.80;2.22;;;;;;;18.25;74.25;100267.91;5054811;28;20035;-80
2022/05/29 09:31:25;;;;;;;8.77;4.55;;;;;;;18.29;74.27;100185.41;5045538;28;20396;-80
2022/05/29 09:33:52;;;;;;;18.73;3.97;;;;;;;17.55;73.77;100191.44;5045336;28;20048;-81
2022/05/29 09:36:51;;;;;;;4.63;2.63;;;;;;;18.09;73.67;100284.34;5005548;28;20552;-81
2022/05/29 09:39:17;;;;;;;7.32;4.88;;;;;;;18.24;73.37;100216.56;5046212;28;20055;-77
2022/05/29 09:41:49;;;;;;;11.40;2.88;;;;;;;18.68;71.51;100287.66;5064567;28;20045;-78
2022/05/29 09:44:16;;;;;;;5.32;2.42;;;;;;;19.04;72.42;100285.50;5060907;28;20043;-78
2022/05/29 09:46:43;;;;;;;13.18;2.92;;;;;;;18.60;72.29;100285.28;5049959;28;20075;-78
2022/05/29 09:49:42;;;;;;;4.97;2.53;;;;;;;18.35;72.67;100291.47;5049931;28;20056;-76
2022/05/29 09:52:13;;;;;;;5.93;2.30;;;;;;;18.60;72.90;100277.31;5053319;28;20049;-78
2022/05/29 09:55:03;;;;;;;6.13;3.00;;;;;;;18.83;72.20;100270.34;5038225;28;20048;-83
2022/05/29 09:57:32;;;;;;;6.22;2.53;;;;;;;19.66;70.14;100256.53;5038522;28;20143;-81
2022/05/29 10:00:09;;;;;;;11.80;3.40;;;;;;;19.90;68.58;100270.66;5055903;28;20167;-82
2022/05/29 10:02:40;;;;;;;13.98;2.90;;;;;;;19.74;68.55;100279.28;5054027;28;20047;-78
2022/05/29 10:05:20;;;;;;;5.30;2.50;;;;;;;20.67;68.49;100284.31;5068127;28;20139;-79
2022/05/29 10:07:47;;;;;;;7.43;3.58;;;;;;;21.15;65.47;100280.38;5038074;28;20052;-82
2022/05/29 10:10:27;;;;;;;9.02;3.30;;;;;;;21.41;63.17;100281.00;5030555;28;20131;-85
2022/05/29 10:12:58;;;;;;;8.35;3.25;;;;;;;20.58;65.61;100204.72;5030813;28;20057;-80
2022/05/29 10:15:26;;;;;;;8.13;3.08;;;;;;;20.82;68.00;100267.63;5042743;28;20049;-80
2022/05/29 10:17:53;;;;;;;4.70;2.45;;;;;;;20.98;66.70;100262.47;5040911;28;20043;-79
2022/05/29 10:20:32;;;;;;;10.40;3.75;;;;;;;21.36;65.10;100253.63;5045208;28;20033;-81
2022/05/29 10:23:01;;;;;;;6.95;3.22;;;;;;;21.79;65.21;100206.19;5035581;28;20053;-81
2022/05/29 10:25:31;;;;;;;6.10;3.20;;;;;;;21.33;65.07;100206.59;5040263;28;20243;-79
2022/05/29 10:28:10;;;;;;;9.02;2.65;;;;;;;21.57;66.31;100273.16;5031569;28;20102;-78
2022/05/29 10:30:44;;;;;;;4.63;2.80;;;;;;;21.16;66.84;100267.91;5037804;28;20080;-80
2022/05/29 10:33:13;;;;;;;7.68;2.65;;;;;;;21.03;66.61;100252.47;5045975;28;20041;-78
2022/05/29 10:35:41;;;;;;;4.18;2.15;;;;;;;20.61;67.37;100200.13;5021606;28;20044;-80
2022/05/29 10:38:19;;;;;;;5.50;2.30;;;;;;;21.45;67.07;100272.78;5029716;28;20049;-79
2022/05/29 10:40:47;;;;;;;5.07;3.05;;;;;;;20.91;65.16;100309.06;5043406;28;20388;-77
2022/05/29 10:43:32;;;;;;;3.58;2.58;;;;;;;20.67;67.74;100310.97;5052418;28;20103;-79
2022/05/29 10:46:05;;;;;;;4.78;3.40;;;;;;;20.69;67.89;100313.59;5055399;28;20051;-78
2022/05/29 10:49:20;;;;;;;8.27;3.30;;;;;;;20.31;68.30;100233.44;5057796;28;20133;-79
2022/05/29 10:51:58;;;;;;;5.63;3.30;;;;;;;20.67;70.24;100292.31;5057014;28;20043;-80
2022/05/29 10:54:51;;;;;;;4.15;2.70;;;;;;;20.06;68.57;100284.22;5057633;28;20045;-84
2022/05/29 10:57:35;;;;;;;4.90;3.03;;;;;;;19.58;69.97;100214.25;5035755;28;20092;-73
2022/05/29 11:00:04;;;;;;;13.52;3.28;;;;;;;19.75;70.82;100265.03;5059189;28;20059;-75
2022/05/29 11:03:28;;;;;;;10.18;3.33;;;;;;;19.95;70.51;100234.94;5044268;28;20048;-75
2022/05/29 11:06:27;;;;;;;6.70;3.72;;;;;;;19.31;72.20;100189.59;5053216;28;20056;-73
2022/05/29 11:09:11;;;;;;;7.72;3.40;;;;;;;19.90;73.75;100162.38;5051254;28;21305;-73
2022/05/29 11:11:52;;;;;;;5.38;2.75;;;;;;;20.39;75.30;100133.56;5061030;28;20123;-74
2022/05/29 11:14:41;;;;;;;6.43;3.03;;;;;;;20.30;73.76;100138.44;5054637;28;20140;-73
2022/05/29 11:17:38;;;;;;;5.45;3.47;;;;;;;21.26;70.71;100167.81;5031144;28;20049;-72
2022/05/29 11:20:41;;;;;;;6.10;3.00;;;;;;;21.40;68.23;100122.66;5058185;28;20063;-73
2022/05/29 11:23:37;;;;;;;9.15;5.05;;;;;;;21.63;68.11;100190.94;5058994;28;20060;-75
2022/05/29 11:26:24;;;;;;;6.30;4.25;;;;;;;21.18;67.77;100143.28;5060879;28;20096;-74
2022/05/29 11:29:24;;;;;;;8.05;4.53;;;;;;;20.81;69.16;100132.56;5062979;28;20149;-76
2022/05/29 11:32:15;;;;;;;9.35;3.92;;;;;;;20.63;69.37;100120.94;5061697;28;20056;-73
2022/05/29 11:35:03;;;;;;;6.03;3.78;;;;;;;20.82;70.44;100152.97;5057349;28;20048;-74
2022/05/29 11:37:59;;;;;;;5.85;3.63;;;;;;;21.01;70.44;100112.09;5030181;28;20512;-73
2022/05/29 11:40:39;;;;;;;7.47;4.82;;;;;;;21.39;67.57;100109.34;5062250;28;20123;-74
2022/05/29 11:43:32;;;;;;;7.60;4.85;;;;;;;20.83;69.49;100122.66;5061772;28;20051;-74
2022/05/29 11:52:17;;;;;;;9.05;5.18;;;;;;;21.10;68.97;100156.13;5052593;28;21641;-75
2022/05/29 11:55:13;;;;;;;10.68;6.22;;;;;;;20.94;68.13;100091.97;5061140;28;20536;-75
2022/05/29 11:58:11;;;;;;;10.10;6.35;;;;;;;21.84;67.40;100156.91;5042619;28;20044;-73
2022/05/29 12:01:09;;;;;;;9.30;4.70;;;;;;;20.77;69.02;100164.78;5059239;28;20052;-75
2022/05/29 12:04:16;;;;;;;6.55;5.15;;;;;;;21.05;68.56;100157.22;5014660;28;20104;-74
2022/05/29 12:06:51;;;;;;;6.75;4.88;;;;;;;21.18;68.31;100105.91;4959022;28;20437;-75
2022/05/29 12:09:41;;;;;;;9.20;6.68;;;;;;;21.03;67.54;100091.53;5028656;28;20156;-73
2022/05/29 12:12:32;;;;;;;10.65;5.60;;;;;;;22.11;65.79;100143.09;5022364;28;20057;-76
2022/05/29 12:15:02;;;;;;;8.80;6.32;;;;;;;22.30;66.38;100145.69;5061969;28;20027;-76
2022/05/29 12:17:46;;;;;;;8.93;6.75;;;;;;;21.89;66.68;100080.09;5066545;28;20120;-76
2022/05/29 12:20:19;;;;;;;10.63;6.68;;;;;;;21.70;66.55;100074.84;5044152;28;20052;-76
2022/05/29 12:22:51;;;;;;;;;;;;;;;22.37;67.92;100133.72;5043919;28;20053;-75
2022/05/29 12:25:26;;;;;;;12.05;7.18;;;;;;;20.16;70.14;100080.47;5061018;28;20039;-75